sensor_id;sensor_type;location;lat;lon;timestamp;P1;durP1;ratioP1;P2;durP2;ratioP2
56927;SDS011;60850;52.502;13.426;2023-04-01T00:02:00;5.57;;;2.55;;
56927;SDS011;60850;52.502;13.426;2023-04-01T00:04:29;4.97;;;2.40;;
56927;SDS011;60850;52.502;13.426;2023-04-01T00:06:56;3.78;;;2.38;;
56927;SDS011;60850;52.502;13.426;2023-04-01T00:09:23;7.13;;;3.15;;
56927;SDS011;60850;52.502;13.426;2023-04-01T00:11:50;5.43;;;2.35;;
56927;SDS011;60850;52.502;13.426;2023-04-01T00:14:17;6.03;;;2.00;;
56927;SDS011;60850;52.502;13.426;2023-04-01T00:16:44;3.72;;;2.30;;
56927;SDS011;60850;52.502;13.426;2023-04-01T00:19:11;4.60;;;2.08;;
56927;SDS011;60850;52.502;13.426;2023-04-01T00:21:39;4.53;;;2.10;;
56927;SDS011;60850;52.502;13.426;2023-04-01T00:24:06;4.90;;;2.17;;
56927;SDS011;60850;52.502;13.426;2023-04-01T00:26:33;4.65;;;2.33;;
56927;SDS011;60850;52.502;13.426;2023-04-01T00:29:00;3.22;;;2.00;;
56927;SDS011;60850;52.502;13.426;2023-04-01T00:31:27;8.80;;;2.42;;
56927;SDS011;60850;52.502;13.426;2023-04-01T00:33:55;6.30;;;2.70;;
56927;SDS011;60850;52.502;13.426;2023-04-01T00:36:22;4.90;;;2.40;;
56927;SDS011;60850;52.502;13.426;2023-04-01T00:38:51;4.20;;;2.40;;
56927;SDS011;60850;52.502;13.426;2023-04-01T00:41:18;4.18;;;2.22;;
56927;SDS011;60850;52.502;13.426;2023-04-01T00:43:47;8.38;;;3.17;;
56927;SDS011;60850;52.502;13.426;2023-04-01T00:46:15;3.72;;;2.00;;
56927;SDS011;60850;52.502;13.426;2023-04-01T00:48:43;4.47;;;1.92;;
56927;SDS011;60850;52.502;13.426;2023-04-01T00:51:14;4.15;;;1.80;;
56927;SDS011;60850;52.502;13.426;2023-04-01T00:53:44;3.85;;;2.13;;
56927;SDS011;60850;52.502;13.426;2023-04-01T00:56:16;4.28;;;1.80;;
56927;SDS011;60850;52.502;13.426;2023-04-01T00:58:48;4.93;;;1.95;;
56927;SDS011;60850;52.502;13.426;2023-04-01T01:01:18;3.97;;;1.95;;
56927;SDS011;60850;52.502;13.426;2023-04-01T01:03:46;3.17;;;1.88;;
56927;SDS011;60850;52.502;13.426;2023-04-01T01:06:16;5.95;;;2.45;;
56927;SDS011;60850;52.502;13.426;2023-04-01T01:08:56;5.93;;;2.67;;
56927;SDS011;60850;52.502;13.426;2023-04-01T01:11:35;6.90;;;2.22;;
56927;SDS011;60850;52.502;13.426;2023-04-01T01:16:40;4.40;;;2.13;;
56927;SDS011;60850;52.502;13.426;2023-04-01T01:19:16;5.50;;;2.13;;
56927;SDS011;60850;52.502;13.426;2023-04-01T01:22:03;4.07;;;1.90;;
56927;SDS011;60850;52.502;13.426;2023-04-01T01:24:51;7.45;;;2.28;;
56927;SDS011;60850;52.502;13.426;2023-04-01T01:27:29;4.97;;;2.30;;
56927;SDS011;60850;52.502;13.426;2023-04-01T01:30:08;3.05;;;1.65;;
56927;SDS011;60850;52.502;13.426;2023-04-01T01:32:51;7.90;;;1.83;;
56927;SDS011;60850;52.502;13.426;2023-04-01T01:35:32;4.50;;;1.95;;
56927;SDS011;60850;52.502;13.426;2023-04-01T01:38:02;6.50;;;1.83;;
56927;SDS011;60850;52.502;13.426;2023-04-01T01:40:32;5.32;;;1.83;;
56927;SDS011;60850;52.502;13.426;2023-04-01T01:43:02;3.28;;;1.30;;
56927;SDS011;60850;52.502;13.426;2023-04-01T01:45:32;4.90;;;2.05;;
56927;SDS011;60850;52.502;13.426;2023-04-01T01:48:02;2.40;;;1.50;;
56927;SDS011;60850;52.502;13.426;2023-04-01T01:50:33;4.47;;;1.75;;
56927;SDS011;60850;52.502;13.426;2023-04-01T01:53:01;6.05;;;2.35;;
56927;SDS011;60850;52.502;13.426;2023-04-01T01:55:33;4.57;;;1.85;;
56927;SDS011;60850;52.502;13.426;2023-04-01T01:58:02;4.47;;;1.70;;
56927;SDS011;60850;52.502;13.426;2023-04-01T02:00:35;4.55;;;1.75;;
56927;SDS011;60850;52.502;13.426;2023-04-01T02:03:02;4.32;;;1.73;;
56927;SDS011;60850;52.502;13.426;2023-04-01T02:05:32;2.75;;;1.70;;
56927;SDS011;60850;52.502;13.426;2023-04-01T02:08:01;3.75;;;1.70;;
56927;SDS011;60850;52.502;13.426;2023-04-01T02:10:34;3.17;;;1.63;;
56927;SDS011;60850;52.502;13.426;2023-04-01T02:13:05;4.85;;;1.45;;
56927;SDS011;60850;52.502;13.426;2023-04-01T02:15:42;4.30;;;1.90;;
56927;SDS011;60850;52.502;13.426;2023-04-01T02:18:13;5.40;;;1.75;;
56927;SDS011;60850;52.502;13.426;2023-04-01T02:20:43;3.17;;;1.63;;
56927;SDS011;60850;52.502;13.426;2023-04-01T02:23:11;6.65;;;1.95;;
56927;SDS011;60850;52.502;13.426;2023-04-01T02:25:39;3.42;;;1.83;;
56927;SDS011;60850;52.502;13.426;2023-04-01T02:28:08;5.13;;;2.00;;
56927;SDS011;60850;52.502;13.426;2023-04-01T02:30:37;4.43;;;1.60;;
56927;SDS011;60850;52.502;13.426;2023-04-01T02:33:06;3.75;;;1.45;;
56927;SDS011;60850;52.502;13.426;2023-04-01T02:35:33;4.32;;;1.50;;
56927;SDS011;60850;52.502;13.426;2023-04-01T02:38:06;3.03;;;1.80;;
56927;SDS011;60850;52.502;13.426;2023-04-01T02:40:44;5.53;;;1.85;;
56927;SDS011;60850;52.502;13.426;2023-04-01T02:43:12;4.00;;;1.60;;
56927;SDS011;60850;52.502;13.426;2023-04-01T02:45:40;3.88;;;1.63;;
56927;SDS011;60850;52.502;13.426;2023-04-01T02:48:06;7.55;;;1.73;;
56927;SDS011;60850;52.502;13.426;2023-04-01T02:50:33;3.47;;;1.63;;
56927;SDS011;60850;52.502;13.426;2023-04-01T02:53:00;4.78;;;1.75;;
56927;SDS011;60850;52.502;13.426;2023-04-01T02:55:30;3.75;;;1.50;;
56927;SDS011;60850;52.502;13.426;2023-04-01T02:57:57;4.45;;;2.10;;
56927;SDS011;60850;52.502;13.426;2023-04-01T03:00:24;3.10;;;1.63;;
56927;SDS011;60850;52.502;13.426;2023-04-01T03:02:51;5.20;;;1.77;;
56927;SDS011;60850;52.502;13.426;2023-04-01T03:05:18;2.33;;;1.75;;
56927;SDS011;60850;52.502;13.426;2023-04-01T03:07:46;3.22;;;1.42;;
56927;SDS011;60850;52.502;13.426;2023-04-01T03:10:13;4.18;;;1.42;;
56927;SDS011;60850;52.502;13.426;2023-04-01T03:12:41;3.08;;;1.55;;
56927;SDS011;60850;52.502;13.426;2023-04-01T03:15:09;2.55;;;1.50;;
56927;SDS011;60850;52.502;13.426;2023-04-01T03:17:37;4.93;;;1.90;;
56927;SDS011;60850;52.502;13.426;2023-04-01T03:20:05;4.15;;;2.20;;
56927;SDS011;60850;52.502;13.426;2023-04-01T03:22:33;3.35;;;1.88;;
56927;SDS011;60850;52.502;13.426;2023-04-01T03:25:00;2.30;;;1.50;;
56927;SDS011;60850;52.502;13.426;2023-04-01T03:27:27;3.72;;;1.67;;
56927;SDS011;60850;52.502;13.426;2023-04-01T03:29:56;5.65;;;1.80;;
56927;SDS011;60850;52.502;13.426;2023-04-01T03:32:23;3.22;;;1.70;;
56927;SDS011;60850;52.502;13.426;2023-04-01T03:34:50;3.10;;;1.75;;
56927;SDS011;60850;52.502;13.426;2023-04-01T03:37:17;5.45;;;1.85;;
56927;SDS011;60850;52.502;13.426;2023-04-01T03:39:44;3.72;;;1.63;;
56927;SDS011;60850;52.502;13.426;2023-04-01T03:42:10;2.92;;;1.70;;
56927;SDS011;60850;52.502;13.426;2023-04-01T03:44:38;2.97;;;1.88;;
56927;SDS011;60850;52.502;13.426;2023-04-01T03:47:06;4.97;;;1.73;;
56927;SDS011;60850;52.502;13.426;2023-04-01T03:49:34;4.60;;;1.65;;
56927;SDS011;60850;52.502;13.426;2023-04-01T03:52:01;4.38;;;1.88;;
56927;SDS011;60850;52.502;13.426;2023-04-01T03:54:28;4.35;;;2.15;;
56927;SDS011;60850;52.502;13.426;2023-04-01T03:56:55;6.78;;;2.15;;
56927;SDS011;60850;52.502;13.426;2023-04-01T03:59:23;7.28;;;1.70;;
56927;SDS011;60850;52.502;13.426;2023-04-01T04:01:50;3.40;;;1.58;;
56927;SDS011;60850;52.502;13.426;2023-04-01T04:04:18;4.53;;;1.77;;
56927;SDS011;60850;52.502;13.426;2023-04-01T04:06:45;4.70;;;1.98;;
56927;SDS011;60850;52.502;13.426;2023-04-01T04:09:12;6.07;;;2.25;;
56927;SDS011;60850;52.502;13.426;2023-04-01T04:11:39;2.45;;;1.52;;
56927;SDS011;60850;52.502;13.426;2023-04-01T04:14:06;3.70;;;1.90;;
56927;SDS011;60850;52.502;13.426;2023-04-01T04:16:34;5.35;;;1.95;;
56927;SDS011;60850;52.502;13.426;2023-04-01T04:19:02;5.88;;;1.63;;
56927;SDS011;60850;52.502;13.426;2023-04-01T04:21:30;6.38;;;2.38;;
56927;SDS011;60850;52.502;13.426;2023-04-01T04:23:58;4.47;;;2.00;;
56927;SDS011;60850;52.502;13.426;2023-04-01T04:26:24;3.10;;;1.90;;
56927;SDS011;60850;52.502;13.426;2023-04-01T04:28:53;6.70;;;2.28;;
56927;SDS011;60850;52.502;13.426;2023-04-01T04:31:20;9.88;;;2.13;;
56927;SDS011;60850;52.502;13.426;2023-04-01T04:33:48;6.35;;;1.90;;
56927;SDS011;60850;52.502;13.426;2023-04-01T04:36:16;4.53;;;2.08;;
56927;SDS011;60850;52.502;13.426;2023-04-01T04:38:45;3.80;;;2.13;;
56927;SDS011;60850;52.502;13.426;2023-04-01T04:41:12;4.95;;;2.03;;
56927;SDS011;60850;52.502;13.426;2023-04-01T04:43:40;4.53;;;2.00;;
56927;SDS011;60850;52.502;13.426;2023-04-01T04:46:07;3.38;;;1.90;;
56927;SDS011;60850;52.502;13.426;2023-04-01T04:48:35;5.22;;;1.75;;
56927;SDS011;60850;52.502;13.426;2023-04-01T04:51:02;5.03;;;1.70;;
56927;SDS011;60850;52.502;13.426;2023-04-01T04:53:29;6.32;;;2.10;;
56927;SDS011;60850;52.502;13.426;2023-04-01T04:55:58;5.63;;;2.28;;
56927;SDS011;60850;52.502;13.426;2023-04-01T04:58:25;6.10;;;2.10;;
56927;SDS011;60850;52.502;13.426;2023-04-01T05:00:51;3.67;;;1.75;;
56927;SDS011;60850;52.502;13.426;2023-04-01T05:03:18;3.75;;;2.00;;
56927;SDS011;60850;52.502;13.426;2023-04-01T05:05:49;5.97;;;2.17;;
56927;SDS011;60850;52.502;13.426;2023-04-01T05:08:16;4.85;;;2.20;;
56927;SDS011;60850;52.502;13.426;2023-04-01T05:10:44;3.05;;;1.73;;
56927;SDS011;60850;52.502;13.426;2023-04-01T05:13:12;6.82;;;2.33;;
56927;SDS011;60850;52.502;13.426;2023-04-01T05:15:39;5.80;;;2.00;;
56927;SDS011;60850;52.502;13.426;2023-04-01T05:18:06;4.18;;;1.88;;
56927;SDS011;60850;52.502;13.426;2023-04-01T05:20:33;6.30;;;2.03;;
56927;SDS011;60850;52.502;13.426;2023-04-01T05:23:00;5.15;;;2.40;;
56927;SDS011;60850;52.502;13.426;2023-04-01T05:25:27;5.28;;;2.35;;
56927;SDS011;60850;52.502;13.426;2023-04-01T05:27:54;8.10;;;2.13;;
56927;SDS011;60850;52.502;13.426;2023-04-01T05:30:22;2.95;;;1.70;;
56927;SDS011;60850;52.502;13.426;2023-04-01T05:32:49;5.07;;;2.28;;
56927;SDS011;60850;52.502;13.426;2023-04-01T05:35:16;4.43;;;2.22;;
56927;SDS011;60850;52.502;13.426;2023-04-01T05:37:43;7.40;;;2.28;;
56927;SDS011;60850;52.502;13.426;2023-04-01T05:40:10;6.70;;;2.28;;
56927;SDS011;60850;52.502;13.426;2023-04-01T05:42:37;3.25;;;1.92;;
56927;SDS011;60850;52.502;13.426;2023-04-01T05:45:05;4.32;;;1.85;;
56927;SDS011;60850;52.502;13.426;2023-04-01T05:47:34;6.53;;;2.50;;
56927;SDS011;60850;52.502;13.426;2023-04-01T05:50:01;4.97;;;2.20;;
56927;SDS011;60850;52.502;13.426;2023-04-01T05:52:28;3.97;;;2.13;;
56927;SDS011;60850;52.502;13.426;2023-04-01T05:54:55;4.82;;;2.10;;
56927;SDS011;60850;52.502;13.426;2023-04-01T05:57:22;6.22;;;2.30;;
56927;SDS011;60850;52.502;13.426;2023-04-01T05:59:49;7.75;;;2.50;;
56927;SDS011;60850;52.502;13.426;2023-04-01T06:02:16;4.82;;;2.30;;
56927;SDS011;60850;52.502;13.426;2023-04-01T06:04:46;6.97;;;2.83;;
56927;SDS011;60850;52.502;13.426;2023-04-01T06:07:14;5.60;;;2.50;;
56927;SDS011;60850;52.502;13.426;2023-04-01T06:09:42;7.78;;;2.42;;
56927;SDS011;60850;52.502;13.426;2023-04-01T06:15:13;7.00;;;2.70;;
56927;SDS011;60850;52.502;13.426;2023-04-01T06:17:51;7.00;;;2.90;;
56927;SDS011;60850;52.502;13.426;2023-04-01T06:20:30;5.97;;;2.38;;
56927;SDS011;60850;52.502;13.426;2023-04-01T06:23:18;9.23;;;2.67;;
56927;SDS011;60850;52.502;13.426;2023-04-01T06:25:55;6.22;;;2.83;;
56927;SDS011;60850;52.502;13.426;2023-04-01T06:28:45;7.18;;;2.70;;
56927;SDS011;60850;52.502;13.426;2023-04-01T06:31:44;4.20;;;2.70;;
56927;SDS011;60850;52.502;13.426;2023-04-01T06:34:31;6.97;;;3.10;;
56927;SDS011;60850;52.502;13.426;2023-04-01T06:37:15;5.63;;;2.28;;
56927;SDS011;60850;52.502;13.426;2023-04-01T06:40:00;7.75;;;3.05;;
56927;SDS011;60850;52.502;13.426;2023-04-01T06:42:42;4.35;;;2.40;;
56927;SDS011;60850;52.502;13.426;2023-04-01T06:45:27;6.63;;;3.03;;
56927;SDS011;60850;52.502;13.426;2023-04-01T06:48:05;5.28;;;2.55;;
56927;SDS011;60850;52.502;13.426;2023-04-01T06:50:47;3.90;;;2.63;;
56927;SDS011;60850;52.502;13.426;2023-04-01T06:53:23;4.38;;;2.47;;
56927;SDS011;60850;52.502;13.426;2023-04-01T06:56:00;7.40;;;2.78;;
56927;SDS011;60850;52.502;13.426;2023-04-01T06:58:34;3.65;;;2.67;;
56927;SDS011;60850;52.502;13.426;2023-04-01T07:01:04;7.80;;;2.85;;
56927;SDS011;60850;52.502;13.426;2023-04-01T07:03:35;9.70;;;4.13;;
56927;SDS011;60850;52.502;13.426;2023-04-01T07:06:08;8.13;;;3.40;;
56927;SDS011;60850;52.502;13.426;2023-04-01T07:08:40;4.40;;;3.17;;
56927;SDS011;60850;52.502;13.426;2023-04-01T07:11:10;6.28;;;2.97;;
56927;SDS011;60850;52.502;13.426;2023-04-01T07:13:52;6.18;;;2.78;;
56927;SDS011;60850;52.502;13.426;2023-04-01T07:16:24;6.88;;;2.80;;
56927;SDS011;60850;52.502;13.426;2023-04-01T07:18:56;5.13;;;2.58;;
56927;SDS011;60850;52.502;13.426;2023-04-01T07:21:29;4.75;;;2.58;;
56927;SDS011;60850;52.502;13.426;2023-04-01T07:24:03;4.45;;;2.88;;
56927;SDS011;60850;52.502;13.426;2023-04-01T07:26:32;6.97;;;3.17;;
56927;SDS011;60850;52.502;13.426;2023-04-01T07:28:59;6.50;;;3.38;;
56927;SDS011;60850;52.502;13.426;2023-04-01T07:31:30;6.95;;;3.55;;
56927;SDS011;60850;52.502;13.426;2023-04-01T07:34:12;5.80;;;3.25;;
56927;SDS011;60850;52.502;13.426;2023-04-01T07:39:23;6.97;;;2.83;;
56927;SDS011;60850;52.502;13.426;2023-04-01T07:41:58;6.30;;;2.75;;
56927;SDS011;60850;52.502;13.426;2023-04-01T07:44:34;6.18;;;3.35;;
56927;SDS011;60850;52.502;13.426;2023-04-01T07:47:14;5.23;;;3.03;;
56927;SDS011;60850;52.502;13.426;2023-04-01T07:49:52;8.52;;;2.80;;
56927;SDS011;60850;52.502;13.426;2023-04-01T07:52:31;5.85;;;3.03;;
56927;SDS011;60850;52.502;13.426;2023-04-01T07:55:04;7.47;;;2.80;;
56927;SDS011;60850;52.502;13.426;2023-04-01T07:57:38;9.82;;;3.88;;
56927;SDS011;60850;52.502;13.426;2023-04-01T08:00:14;6.22;;;2.80;;
56927;SDS011;60850;52.502;13.426;2023-04-01T08:02:51;5.95;;;3.28;;
56927;SDS011;60850;52.502;13.426;2023-04-01T08:05:33;7.10;;;3.10;;
56927;SDS011;60850;52.502;13.426;2023-04-01T08:08:09;5.85;;;3.15;;
56927;SDS011;60850;52.502;13.426;2023-04-01T08:10:46;6.78;;;3.65;;
56927;SDS011;60850;52.502;13.426;2023-04-01T08:13:21;5.03;;;3.20;;
56927;SDS011;60850;52.502;13.426;2023-04-01T08:15:57;8.02;;;3.17;;
56927;SDS011;60850;52.502;13.426;2023-04-01T08:18:37;2.75;;;1.83;;
56927;SDS011;60850;52.502;13.426;2023-04-01T08:21:14;6.32;;;1.90;;
56927;SDS011;60850;52.502;13.426;2023-04-01T08:23:47;5.82;;;1.80;;
56927;SDS011;60850;52.502;13.426;2023-04-01T08:26:20;3.15;;;1.70;;
56927;SDS011;60850;52.502;13.426;2023-04-01T08:28:54;6.63;;;2.75;;
56927;SDS011;60850;52.502;13.426;2023-04-01T08:31:26;2.80;;;1.45;;
56927;SDS011;60850;52.502;13.426;2023-04-01T08:33:59;2.47;;;1.55;;
56927;SDS011;60850;52.502;13.426;2023-04-01T08:36:28;3.42;;;1.52;;
56927;SDS011;60850;52.502;13.426;2023-04-01T08:38:59;3.65;;;2.13;;
56927;SDS011;60850;52.502;13.426;2023-04-01T08:41:41;4.10;;;2.50;;
56927;SDS011;60850;52.502;13.426;2023-04-01T08:44:34;4.78;;;2.28;;
56927;SDS011;60850;52.502;13.426;2023-04-01T08:50:42;5.95;;;3.00;;
56927;SDS011;60850;52.502;13.426;2023-04-01T08:53:50;5.05;;;3.08;;
56927;SDS011;60850;52.502;13.426;2023-04-01T08:56:33;6.95;;;3.47;;
56927;SDS011;60850;52.502;13.426;2023-04-01T08:59:13;6.25;;;3.25;;
56927;SDS011;60850;52.502;13.426;2023-04-01T09:04:59;5.30;;;3.75;;
56927;SDS011;60850;52.502;13.426;2023-04-01T09:08:01;6.05;;;3.35;;
56927;SDS011;60850;52.502;13.426;2023-04-01T09:10:53;7.95;;;4.50;;
56927;SDS011;60850;52.502;13.426;2023-04-01T09:13:36;5.70;;;3.60;;
56927;SDS011;60850;52.502;13.426;2023-04-01T09:16:23;6.10;;;3.20;;
56927;SDS011;60850;52.502;13.426;2023-04-01T09:19:11;4.60;;;3.13;;
56927;SDS011;60850;52.502;13.426;2023-04-01T09:21:53;7.65;;;3.97;;
56927;SDS011;60850;52.502;13.426;2023-04-01T09:24:51;5.50;;;3.88;;
56927;SDS011;60850;52.502;13.426;2023-04-01T09:27:28;8.18;;;4.65;;
56927;SDS011;60850;52.502;13.426;2023-04-01T09:30:10;7.28;;;4.40;;
56927;SDS011;60850;52.502;13.426;2023-04-01T09:33:16;7.57;;;4.45;;
56927;SDS011;60850;52.502;13.426;2023-04-01T09:36:23;8.35;;;4.93;;
56927;SDS011;60850;52.502;13.426;2023-04-01T09:39:11;7.28;;;4.38;;
56927;SDS011;60850;52.502;13.426;2023-04-01T09:41:54;7.72;;;5.10;;
56927;SDS011;60850;52.502;13.426;2023-04-01T09:44:33;8.35;;;5.20;;
56927;SDS011;60850;52.502;13.426;2023-04-01T09:47:06;8.88;;;5.65;;
56927;SDS011;60850;52.502;13.426;2023-04-01T09:49:59;9.48;;;5.68;;
56927;SDS011;60850;52.502;13.426;2023-04-01T09:52:44;9.02;;;5.95;;
56927;SDS011;60850;52.502;13.426;2023-04-01T09:55:23;10.25;;;6.43;;
56927;SDS011;60850;52.502;13.426;2023-04-01T10:08:14;7.10;;;5.30;;
56927;SDS011;60850;52.502;13.426;2023-04-01T10:11:10;9.65;;;6.18;;
56927;SDS011;60850;52.502;13.426;2023-04-01T10:16:50;7.88;;;5.60;;
56927;SDS011;60850;52.502;13.426;2023-04-01T10:19:43;8.80;;;5.65;;
56927;SDS011;60850;52.502;13.426;2023-04-01T10:31:34;10.05;;;6.40;;
56927;SDS011;60850;52.502;13.426;2023-04-01T10:34:25;9.38;;;5.57;;
56927;SDS011;60850;52.502;13.426;2023-04-01T10:37:09;8.02;;;5.78;;
56927;SDS011;60850;52.502;13.426;2023-04-01T10:54:49;6.78;;;5.22;;
56927;SDS011;60850;52.502;13.426;2023-04-01T10:57:40;8.75;;;6.43;;
56927;SDS011;60850;52.502;13.426;2023-04-01T11:00:43;7.20;;;5.15;;
56927;SDS011;60850;52.502;13.426;2023-04-01T11:03:44;7.37;;;5.70;;
56927;SDS011;60850;52.502;13.426;2023-04-01T11:09:56;5.05;;;3.70;;
56927;SDS011;60850;52.502;13.426;2023-04-01T11:12:52;4.65;;;3.47;;
56927;SDS011;60850;52.502;13.426;2023-04-01T11:15:40;5.85;;;3.08;;
56927;SDS011;60850;52.502;13.426;2023-04-01T11:21:50;5.35;;;2.85;;
56927;SDS011;60850;52.502;13.426;2023-04-01T11:24:40;3.67;;;2.67;;
56927;SDS011;60850;52.502;13.426;2023-04-01T11:27:32;2.95;;;2.63;;
56927;SDS011;60850;52.502;13.426;2023-04-01T11:30:19;4.35;;;2.40;;
56927;SDS011;60850;52.502;13.426;2023-04-01T11:32:57;4.13;;;2.90;;
56927;SDS011;60850;52.502;13.426;2023-04-01T11:35:38;3.03;;;2.67;;
56927;SDS011;60850;52.502;13.426;2023-04-01T11:38:17;3.20;;;2.70;;
56927;SDS011;60850;52.502;13.426;2023-04-01T11:40:54;3.92;;;2.65;;
56927;SDS011;60850;52.502;13.426;2023-04-01T11:43:28;4.40;;;2.80;;
56927;SDS011;60850;52.502;13.426;2023-04-01T11:46:03;5.00;;;2.70;;
56927;SDS011;60850;52.502;13.426;2023-04-01T11:48:50;3.53;;;2.38;;
56927;SDS011;60850;52.502;13.426;2023-04-01T11:51:36;3.67;;;2.65;;
56927;SDS011;60850;52.502;13.426;2023-04-01T11:54:18;4.18;;;2.58;;
56927;SDS011;60850;52.502;13.426;2023-04-01T11:56:58;3.25;;;2.13;;
56927;SDS011;60850;52.502;13.426;2023-04-01T11:59:43;3.28;;;2.20;;
56927;SDS011;60850;52.502;13.426;2023-04-01T12:02:24;5.18;;;2.80;;
56927;SDS011;60850;52.502;13.426;2023-04-01T12:05:07;3.67;;;2.37;;
56927;SDS011;60850;52.502;13.426;2023-04-01T12:07:54;4.20;;;3.17;;
56927;SDS011;60850;52.502;13.426;2023-04-01T12:10:33;5.25;;;3.20;;
56927;SDS011;60850;52.502;13.426;2023-04-01T12:13:08;5.43;;;3.13;;
56927;SDS011;60850;52.502;13.426;2023-04-01T12:15:48;3.97;;;2.78;;
56927;SDS011;60850;52.502;13.426;2023-04-01T12:18:26;4.25;;;2.92;;
56927;SDS011;60850;52.502;13.426;2023-04-01T12:21:02;7.15;;;3.65;;
56927;SDS011;60850;52.502;13.426;2023-04-01T12:23:49;6.53;;;3.55;;
56927;SDS011;60850;52.502;13.426;2023-04-01T12:26:42;4.80;;;3.60;;
56927;SDS011;60850;52.502;13.426;2023-04-01T12:29:21;4.43;;;2.83;;
56927;SDS011;60850;52.502;13.426;2023-04-01T12:32:12;5.55;;;3.42;;
56927;SDS011;60850;52.502;13.426;2023-04-01T12:35:00;5.47;;;4.32;;
56927;SDS011;60850;52.502;13.426;2023-04-01T12:37:41;6.95;;;4.45;;
56927;SDS011;60850;52.502;13.426;2023-04-01T12:40:20;7.35;;;4.30;;
56927;SDS011;60850;52.502;13.426;2023-04-01T12:42:59;6.78;;;4.88;;
56927;SDS011;60850;52.502;13.426;2023-04-01T12:45:42;7.07;;;4.43;;
56927;SDS011;60850;52.502;13.426;2023-04-01T12:48:28;8.52;;;5.80;;
56927;SDS011;60850;52.502;13.426;2023-04-01T12:51:12;9.20;;;5.50;;
56927;SDS011;60850;52.502;13.426;2023-04-01T12:54:02;7.85;;;5.75;;
56927;SDS011;60850;52.502;13.426;2023-04-01T12:56:44;5.60;;;4.47;;
56927;SDS011;60850;52.502;13.426;2023-04-01T12:59:32;6.32;;;4.70;;
56927;SDS011;60850;52.502;13.426;2023-04-01T13:02:33;5.05;;;3.72;;
56927;SDS011;60850;52.502;13.426;2023-04-01T13:05:19;8.60;;;4.90;;
56927;SDS011;60850;52.502;13.426;2023-04-01T13:11:02;7.70;;;5.25;;
56927;SDS011;60850;52.502;13.426;2023-04-01T13:13:40;9.00;;;6.20;;
56927;SDS011;60850;52.502;13.426;2023-04-01T13:16:20;7.88;;;5.80;;
56927;SDS011;60850;52.502;13.426;2023-04-01T13:18:53;9.93;;;6.93;;
56927;SDS011;60850;52.502;13.426;2023-04-01T13:21:28;12.27;;;6.90;;
56927;SDS011;60850;52.502;13.426;2023-04-01T13:24:04;6.60;;;5.43;;
56927;SDS011;60850;52.502;13.426;2023-04-01T13:26:47;9.57;;;5.63;;
56927;SDS011;60850;52.502;13.426;2023-04-01T13:29:23;9.40;;;6.07;;
56927;SDS011;60850;52.502;13.426;2023-04-01T13:32:01;11.32;;;6.70;;
56927;SDS011;60850;52.502;13.426;2023-04-01T13:34:45;11.52;;;6.90;;
56927;SDS011;60850;52.502;13.426;2023-04-01T13:37:25;10.98;;;7.53;;
56927;SDS011;60850;52.502;13.426;2023-04-01T13:40:13;10.30;;;6.20;;
56927;SDS011;60850;52.502;13.426;2023-04-01T13:42:53;8.63;;;5.65;;
56927;SDS011;60850;52.502;13.426;2023-04-01T13:45:24;9.63;;;5.95;;
56927;SDS011;60850;52.502;13.426;2023-04-01T13:48:12;9.48;;;6.63;;
56927;SDS011;60850;52.502;13.426;2023-04-01T13:50:58;7.75;;;5.68;;
56927;SDS011;60850;52.502;13.426;2023-04-01T13:53:39;7.25;;;5.28;;
56927;SDS011;60850;52.502;13.426;2023-04-01T13:56:33;8.82;;;6.35;;
56927;SDS011;60850;52.502;13.426;2023-04-01T14:02:04;7.93;;;5.90;;
56927;SDS011;60850;52.502;13.426;2023-04-01T14:04:53;7.75;;;5.95;;
56927;SDS011;60850;52.502;13.426;2023-04-01T14:07:45;10.63;;;5.90;;
56927;SDS011;60850;52.502;13.426;2023-04-01T14:10:23;8.20;;;5.80;;
56927;SDS011;60850;52.502;13.426;2023-04-01T14:12:58;10.15;;;6.82;;
56927;SDS011;60850;52.502;13.426;2023-04-01T14:15:41;7.68;;;5.60;;
56927;SDS011;60850;52.502;13.426;2023-04-01T14:18:37;8.60;;;6.50;;
56927;SDS011;60850;52.502;13.426;2023-04-01T14:21:33;8.95;;;6.53;;
56927;SDS011;60850;52.502;13.426;2023-04-01T14:24:18;7.03;;;5.60;;
56927;SDS011;60850;52.502;13.426;2023-04-01T14:27:01;11.07;;;6.10;;
56927;SDS011;60850;52.502;13.426;2023-04-01T14:29:41;7.97;;;5.50;;
56927;SDS011;60850;52.502;13.426;2023-04-01T14:32:23;7.85;;;4.72;;
56927;SDS011;60850;52.502;13.426;2023-04-01T14:35:15;7.50;;;5.30;;
56927;SDS011;60850;52.502;13.426;2023-04-01T14:41:19;7.07;;;5.18;;
56927;SDS011;60850;52.502;13.426;2023-04-01T14:49:46;8.70;;;5.90;;
56927;SDS011;60850;52.502;13.426;2023-04-01T14:52:16;8.30;;;5.35;;
56927;SDS011;60850;52.502;13.426;2023-04-01T14:54:51;6.82;;;5.22;;
56927;SDS011;60850;52.502;13.426;2023-04-01T14:57:23;9.48;;;5.93;;
56927;SDS011;60850;52.502;13.426;2023-04-01T14:59:53;6.38;;;4.72;;
56927;SDS011;60850;52.502;13.426;2023-04-01T15:05:26;5.72;;;4.28;;
56927;SDS011;60850;52.502;13.426;2023-04-01T15:08:08;8.88;;;5.63;;
56927;SDS011;60850;52.502;13.426;2023-04-01T15:13:57;6.70;;;4.80;;
56927;SDS011;60850;52.502;13.426;2023-04-01T15:16:39;9.00;;;5.85;;
56927;SDS011;60850;52.502;13.426;2023-04-01T15:19:15;7.38;;;5.60;;
56927;SDS011;60850;52.502;13.426;2023-04-01T15:21:59;7.65;;;4.80;;
56927;SDS011;60850;52.502;13.426;2023-04-01T15:25:03;9.13;;;5.35;;
56927;SDS011;60850;52.502;13.426;2023-04-01T15:27:44;5.90;;;4.47;;
56927;SDS011;60850;52.502;13.426;2023-04-01T15:30:26;7.72;;;5.72;;
56927;SDS011;60850;52.502;13.426;2023-04-01T15:33:02;8.93;;;5.72;;
56927;SDS011;60850;52.502;13.426;2023-04-01T15:35:42;8.60;;;5.03;;
56927;SDS011;60850;52.502;13.426;2023-04-01T15:38:21;7.28;;;4.22;;
56927;SDS011;60850;52.502;13.426;2023-04-01T15:40:57;6.68;;;4.50;;
56927;SDS011;60850;52.502;13.426;2023-04-01T15:43:33;7.78;;;5.25;;
56927;SDS011;60850;52.502;13.426;2023-04-01T15:49:08;6.38;;;4.15;;
56927;SDS011;60850;52.502;13.426;2023-04-01T15:51:46;6.63;;;4.18;;
56927;SDS011;60850;52.502;13.426;2023-04-01T15:54:45;4.70;;;3.08;;
56927;SDS011;60850;52.502;13.426;2023-04-01T15:57:37;4.45;;;3.00;;
56927;SDS011;60850;52.502;13.426;2023-04-01T16:00:25;5.65;;;4.20;;
56927;SDS011;60850;52.502;13.426;2023-04-01T16:03:09;8.20;;;3.83;;
56927;SDS011;60850;52.502;13.426;2023-04-01T16:06:01;4.97;;;3.80;;
56927;SDS011;60850;52.502;13.426;2023-04-01T16:08:44;7.85;;;5.18;;
56927;SDS011;60850;52.502;13.426;2023-04-01T16:11:27;9.60;;;5.45;;
56927;SDS011;60850;52.502;13.426;2023-04-01T16:14:06;7.50;;;5.07;;
56927;SDS011;60850;52.502;13.426;2023-04-01T16:16:47;8.65;;;5.75;;
56927;SDS011;60850;52.502;13.426;2023-04-01T16:19:31;6.20;;;4.60;;
56927;SDS011;60850;52.502;13.426;2023-04-01T16:22:06;7.97;;;5.70;;
56927;SDS011;60850;52.502;13.426;2023-04-01T16:24:38;7.22;;;4.32;;
56927;SDS011;60850;52.502;13.426;2023-04-01T16:27:13;7.10;;;5.10;;
56927;SDS011;60850;52.502;13.426;2023-04-01T16:29:46;8.20;;;5.03;;
56927;SDS011;60850;52.502;13.426;2023-04-01T16:32:18;7.18;;;4.82;;
56927;SDS011;60850;52.502;13.426;2023-04-01T16:34:56;8.52;;;5.18;;
56927;SDS011;60850;52.502;13.426;2023-04-01T16:37:32;6.93;;;4.32;;
56927;SDS011;60850;52.502;13.426;2023-04-01T16:40:10;8.85;;;5.18;;
56927;SDS011;60850;52.502;13.426;2023-04-01T16:42:46;6.28;;;4.18;;
56927;SDS011;60850;52.502;13.426;2023-04-01T16:45:23;6.95;;;5.15;;
56927;SDS011;60850;52.502;13.426;2023-04-01T16:48:00;6.68;;;5.05;;
56927;SDS011;60850;52.502;13.426;2023-04-01T16:50:39;6.88;;;4.47;;